Baroda, MI (49101)

7:42 AM EST on February 14, 2016 (GMT -0500)
Village of Baroda | | Change Station
CLOSE
Current Station
Personal Weather Station
Location: Baroda, MI
Elevation: 646 ft
Nearby Weather Stations

Elev 646 ft 41.96 °N, 86.48 °W | Updated 4 seconds ago

Overcast
Overcast
4.4 °F
Feels Like 4 °F
N
2.0
Wind Variable Wind from SE
Gusts 4.0 mph

Today
High -- | Low -- °F
--% Chance of Precip.
Yesterday
High -- | Low -- °F
Precip. -- in
Pressure 30.47 in
Visibility 10.0 miles
Clouds Overcast 3000 ft
Windchill 4 °F
Dew Point 1 °F
Humidity 86%
Rainfall 0.00 in
Snow Depth Not available.
7:43 AM 6:17 PM
Waxing Crescent, 41% visible
METAR KBEH 141153Z AUTO 13006KT 10SM OVC030 M13/M16 A3043 RMK AO2 SLP317 T11281161 11100 21128 56007
Pressure 30.47 in
Visibility 10.0 miles
Clouds Overcast 3000 ft
Windchill 4 °F
Dew Point 1 °F
Humidity 86%
Rainfall 0.00 in
Snow Depth Not available.
7:43 AM 6:17 PM
Waxing Crescent, 41% visible
METAR KBEH 141153Z AUTO 13006KT 10SM OVC030 M13/M16 A3043 RMK AO2 SLP317 T11281161 11100 21128 56007

10-Day Weather Forecast

Almanac

Astronomy

Feb. 14, 2016 Rise Set
Actual Time
Civil Twilight
Nautical Twilight
Astronomical Twilight
Moon
Length of Visible Light
Length of Day
Tomorrow will be .
, % of the Moon is Illuminated

Today's Extremes

State Highs State Lows

Community

WunderPhotos

Upload Photos

1,892,775 photos uploaded!

WunderBlog® & News

Nearby

Air Quality

  Air Quality AQ Index Pollutant
Not available.

Snow Depth

Station Depth Elevation

Earthquake Activity

City Distance Mag. Time & Date
Minimum magnitude displayed is 2.5.

Coastal Water Temperatures

Place Temperature

Stations

Nearby Weather Stations

Station Location Temp. Windchill Dew Point Humidity Wind Precip. Elev Updated Type
                   

Watches & Warnings

There are currently no watches in effect.